Terminal Aerodrome Forecast
Issued by NWS Kansas City/Pleasant Hill, MO

Home | Current Version | Previous Version | Text Only | Print | Product List | Glossary On
Versions: 1 2 3 4 5 6 7 8 9 10 11 12 13 14 15 16 17 18
906
FTUS43 KEAX 222320
TAFMCI
TAF
KMCI 222320Z 2300/2324 29017G30KT 5SM -SN BR OVC008
      TEMPO 2300/2304 2SM -SN BR
     FM230400 31018G28KT P6SM OVC015
      TEMPO 2304/2307 4SM -SN OVC015
     FM231300 31010KT P6SM OVC015
     FM232000 29009KT P6SM SCT025=

USA.gov is the U.S. government's official web portal to all federal, state and local government web resources and services.